Time;durP1;ratioP1;P1;durP2;ratioP2;P2;SDS_P1;SDS_P2;PMS_P1;PMS_P2;Temp;Humidity;BMP_temperature;BMP_pressure;BME280_temperature;BME280_humidity;BME280_pressure;Samples;Min_cycle;Max_cycle;Signal;HPM_P1;HPM_P2
2021/07/12 00:00:00;;;;;;;5.28;4.50;;;;;;;;;;5087163;28;20372;-53
2021/07/12 00:02:26;;;;;;;6.13;4.60;;;;;;;;;;5094246;28;20020;-54
2021/07/12 00:04:52;;;;;;;5.13;4.38;;;;;;;;;;5094337;28;20091;-52
2021/07/12 00:07:18;;;;;;;8.00;4.35;;;;;;;;;;5082180;28;20388;-56
2021/07/12 00:09:46;;;;;;;5.15;4.05;;;;;;;;;;5076538;28;20037;-54
2021/07/12 00:12:12;;;;;;;5.57;4.47;;;;;;;;;;5076673;28;20027;-53
2021/07/12 00:14:38;;;;;;;6.50;4.20;;;;;;;;;;5067173;28;20104;-54
2021/07/12 00:17:04;;;;;;;4.75;4.10;;;;;;;;;;5074973;28;20042;-53
2021/07/12 00:19:30;;;;;;;7.38;4.75;;;;;;;;;;5072888;28;20472;-53
2021/07/12 00:21:56;;;;;;;6.35;4.88;;;;;;;;;;5086774;28;20028;-52
2021/07/12 00:24:22;;;;;;;5.32;4.65;;;;;;;;;;5075505;28;20535;-51
2021/07/12 00:26:48;;;;;;;5.13;4.35;;;;;;;;;;5093633;28;20379;-52
2021/07/12 00:29:14;;;;;;;5.03;4.53;;;;;;;;;;5093507;28;20043;-54
2021/07/12 00:31:41;;;;;;;6.82;4.70;;;;;;;;;;5080922;28;20028;-53
2021/07/12 00:34:06;;;;;;;4.70;4.20;;;;;;;;;;5087325;28;20352;-55
2021/07/12 00:36:32;;;;;;;5.47;4.65;;;;;;;;;;5092589;28;20032;-54
2021/07/12 00:38:58;;;;;;;5.88;5.05;;;;;;;;;;5072428;28;20033;-51
2021/07/12 00:41:24;;;;;;;8.70;4.90;;;;;;;;;;5087651;28;20516;-57
2021/07/12 00:43:50;;;;;;;6.68;5.00;;;;;;;;;;5093725;28;20032;-57
2021/07/12 00:46:16;;;;;;;5.70;4.88;;;;;;;;;;5080935;28;20106;-55
2021/07/12 00:48:42;;;;;;;5.60;4.25;;;;;;;;;;5091565;28;20092;-54
2021/07/12 00:51:09;;;;;;;6.95;4.65;;;;;;;;;;5090051;28;20418;-53
2021/07/12 00:53:36;;;;;;;5.25;4.75;;;;;;;;;;5092874;28;20463;-54
2021/07/12 00:56:05;;;;;;;5.70;5.00;;;;;;;;;;5093275;28;20097;-53
2021/07/12 00:58:31;;;;;;;9.27;4.97;;;;;;;;;;5093004;28;20538;-52
2021/07/12 01:01:00;;;;;;;5.38;4.57;;;;;;;;;;5093636;28;20089;-48
2021/07/12 01:03:27;;;;;;;7.55;5.07;;;;;;;;;;5078828;28;20024;-48
2021/07/12 01:05:53;;;;;;;5.68;4.97;;;;;;;;;;5092273;28;20036;-49
2021/07/12 01:08:20;;;;;;;5.10;4.60;;;;;;;;;;5075807;28;20040;-48
2021/07/12 01:10:50;;;;;;;6.13;5.30;;;;;;;;;;5091781;28;20020;-48
2021/07/12 01:13:24;;;;;;;5.90;4.88;;;;;;;;;;5078751;28;20039;-48
2021/07/12 01:15:55;;;;;;;8.50;5.00;;;;;;;;;;5092070;28;20091;-48
2021/07/12 01:18:27;;;;;;;8.63;5.10;;;;;;;;;;5091971;28;20024;-49
2021/07/12 01:21:18;;;;;;;7.90;5.32;;;;;;;;;;5092985;28;20024;-48
2021/07/12 01:23:57;;;;;;;5.25;4.63;;;;;;;;;;5091126;28;20032;-48
2021/07/12 01:26:42;;;;;;;5.93;5.32;;;;;;;;;;5070658;28;20033;-48
2021/07/12 01:29:43;;;;;;;5.78;5.28;;;;;;;;;;5069839;28;20024;-48
2021/07/12 01:32:37;;;;;;;8.63;5.22;;;;;;;;;;5057141;28;20074;-49
2021/07/12 01:35:12;;;;;;;6.57;5.75;;;;;;;;;;5082120;28;20115;-48
2021/07/12 01:37:56;;;;;;;5.72;4.75;;;;;;;;;;5072093;28;20024;-48
2021/07/12 01:40:28;;;;;;;6.07;5.40;;;;;;;;;;5066975;28;20028;-50
2021/07/12 01:42:59;;;;;;;6.28;5.13;;;;;;;;;;5083313;28;20012;-48
2021/07/12 01:45:27;;;;;;;6.68;5.45;;;;;;;;;;5083043;28;20066;-48
2021/07/12 01:48:02;;;;;;;6.55;5.30;;;;;;;;;;5086434;28;20066;-48
2021/07/12 01:50:47;;;;;;;5.32;4.82;;;;;;;;;;5084703;28;20024;-48
2021/07/12 01:53:21;;;;;;;8.43;5.50;;;;;;;;;;5057153;28;20028;-49
2021/07/12 01:55:54;;;;;;;5.18;4.68;;;;;;;;;;5070779;28;20384;-49
2021/07/12 01:58:39;;;;;;;8.48;5.35;;;;;;;;;;5091568;28;20088;-48
2021/07/12 02:01:07;;;;;;;6.38;5.55;;;;;;;;;;5090866;28;20103;-49
2021/07/12 02:03:33;;;;;;;6.40;5.20;;;;;;;;;;5077420;28;20034;-48
2021/07/12 02:06:01;;;;;;;6.55;5.13;;;;;;;;;;5089728;28;20028;-48
2021/07/12 02:08:28;;;;;;;9.63;5.88;;;;;;;;;;5076229;28;20070;-48
2021/07/12 02:10:54;;;;;;;7.60;5.70;;;;;;;;;;5087149;28;20017;-48
2021/07/12 02:13:21;;;;;;;7.10;5.00;;;;;;;;;;5072906;28;20052;-48
2021/07/12 02:15:48;;;;;;;8.00;5.05;;;;;;;;;;5090644;28;20031;-48
2021/07/12 02:18:16;;;;;;;5.88;5.28;;;;;;;;;;5091475;28;20028;-48
2021/07/12 02:20:43;;;;;;;7.68;5.55;;;;;;;;;;5091957;28;20035;-49
2021/07/12 02:23:10;;;;;;;7.60;5.75;;;;;;;;;;5069272;28;20116;-49
2021/07/12 02:25:36;;;;;;;6.05;5.25;;;;;;;;;;5081371;28;20120;-49
2021/07/12 02:28:03;;;;;;;6.60;5.97;;;;;;;;;;5087643;28;20063;-51
2021/07/12 02:30:30;;;;;;;6.40;5.35;;;;;;;;;;5092082;28;20107;-48
2021/07/12 02:32:56;;;;;;;7.00;4.85;;;;;;;;;;5075372;28;20050;-48
2021/07/12 02:35:23;;;;;;;6.13;5.53;;;;;;;;;;5091879;28;20103;-49
2021/07/12 02:37:50;;;;;;;7.22;6.10;;;;;;;;;;5091075;28;20647;-48
2021/07/12 02:40:17;;;;;;;6.93;5.30;;;;;;;;;;5092111;28;20035;-48
2021/07/12 02:42:45;;;;;;;7.70;6.07;;;;;;;;;;5091620;28;20024;-48
2021/07/12 02:45:11;;;;;;;6.63;5.55;;;;;;;;;;5085084;28;20440;-48
2021/07/12 02:47:38;;;;;;;8.18;6.32;;;;;;;;;;5086002;28;20035;-48
2021/07/12 02:50:05;;;;;;;7.18;6.13;;;;;;;;;;5090392;28;20482;-50
2021/07/12 02:52:34;;;;;;;11.20;6.57;;;;;;;;;;5084229;28;20426;-48
2021/07/12 02:55:00;;;;;;;8.40;5.75;;;;;;;;;;5056173;28;20037;-48
2021/07/12 02:57:29;;;;;;;6.15;5.32;;;;;;;;;;5083200;28;20076;-49
2021/07/12 02:59:55;;;;;;;8.13;5.50;;;;;;;;;;5071471;28;20020;-49
2021/07/12 03:02:21;;;;;;;8.45;5.88;;;;;;;;;;5081297;28;20122;-48
2021/07/12 03:04:48;;;;;;;7.03;5.55;;;;;;;;;;5091461;28;20073;-48
2021/07/12 03:07:24;;;;;;;8.40;5.93;;;;;;;;;;5064967;28;20030;-48
2021/07/12 03:09:53;;;;;;;7.00;6.28;;;;;;;;;;5074103;28;20028;-50
2021/07/12 03:12:25;;;;;;;6.60;5.90;;;;;;;;;;5080828;28;20017;-49
2021/07/12 03:14:54;;;;;;;7.07;5.80;;;;;;;;;;5055987;28;20032;-48
2021/07/12 03:17:21;;;;;;;7.82;5.40;;;;;;;;;;5083774;28;20423;-48
2021/07/12 03:19:50;;;;;;;5.82;5.30;;;;;;;;;;5088597;28;20594;-48
2021/07/12 03:22:19;;;;;;;6.68;5.88;;;;;;;;;;5091415;28;20041;-48
2021/07/12 03:24:45;;;;;;;6.38;5.65;;;;;;;;;;5087715;28;20484;-48
2021/07/12 03:27:13;;;;;;;7.35;6.22;;;;;;;;;;5094954;28;20024;-47
2021/07/12 03:29:39;;;;;;;9.05;5.82;;;;;;;;;;5090497;28;20107;-48
2021/07/12 03:32:06;;;;;;;9.13;5.97;;;;;;;;;;5092630;28;20103;-49
2021/07/12 03:34:32;;;;;;;6.57;5.97;;;;;;;;;;5092489;28;20028;-51
2021/07/12 03:36:59;;;;;;;8.73;6.10;;;;;;;;;;5094260;28;20103;-50
2021/07/12 03:39:26;;;;;;;7.93;5.63;;;;;;;;;;5094063;28;20026;-50
2021/07/12 03:41:52;;;;;;;7.28;5.10;;;;;;;;;;5094938;28;20127;-52
2021/07/12 03:44:18;;;;;;;9.63;6.55;;;;;;;;;;5093887;28;20153;-48
2021/07/12 03:46:45;;;;;;;8.30;5.20;;;;;;;;;;5081092;28;20099;-49
2021/07/12 03:49:12;;;;;;;6.63;6.03;;;;;;;;;;5093771;28;20614;-48
2021/07/12 03:51:38;;;;;;;7.88;6.72;;;;;;;;;;5094775;28;20051;-52
2021/07/12 03:54:04;;;;;;;7.05;6.30;;;;;;;;;;5094438;28;20024;-48
2021/07/12 03:56:30;;;;;;;8.23;6.82;;;;;;;;;;5094101;28;20531;-49
2021/07/12 03:58:56;;;;;;;8.07;6.18;;;;;;;;;;5093806;28;20448;-48
2021/07/12 04:01:22;;;;;;;8.00;6.57;;;;;;;;;;5090103;28;20095;-48
2021/07/12 04:03:49;;;;;;;7.45;6.40;;;;;;;;;;5088728;28;20105;-48
2021/07/12 04:06:15;;;;;;;8.50;6.45;;;;;;;;;;5089769;28;20107;-48
2021/07/12 04:08:41;;;;;;;8.02;5.97;;;;;;;;;;5086046;28;20093;-48
2021/07/12 04:11:07;;;;;;;6.68;5.40;;;;;;;;;;5090382;28;20527;-50
2021/07/12 04:13:33;;;;;;;7.53;6.07;;;;;;;;;;5066024;28;20063;-48
2021/07/12 04:15:59;;;;;;;6.63;6.03;;;;;;;;;;5094330;28;20051;-49
2021/07/12 04:18:25;;;;;;;6.57;5.78;;;;;;;;;;5082849;28;20059;-48
2021/07/12 04:20:51;;;;;;;6.38;5.50;;;;;;;;;;5094136;28;20063;-51
2021/07/12 04:23:17;;;;;;;7.13;6.00;;;;;;;;;;5085854;28;20028;-49
2021/07/12 04:25:43;;;;;;;5.97;5.38;;;;;;;;;;5068137;28;20077;-48
2021/07/12 04:28:09;;;;;;;9.68;5.88;;;;;;;;;;5089807;28;20448;-48
2021/07/12 04:30:35;;;;;;;6.15;5.55;;;;;;;;;;5088448;28;20095;-48
2021/07/12 04:33:01;;;;;;;6.65;5.97;;;;;;;;;;5069425;28;20107;-48
2021/07/12 04:35:27;;;;;;;7.28;6.05;;;;;;;;;;5075405;28;20731;-48
2021/07/12 04:37:56;;;;;;;7.90;5.97;;;;;;;;;;5087599;28;20027;-48
2021/07/12 04:40:22;;;;;;;9.52;5.93;;;;;;;;;;5085079;28;20056;-49
2021/07/12 04:42:48;;;;;;;10.93;6.35;;;;;;;;;;5086148;28;20077;-48
2021/07/12 04:45:15;;;;;;;7.80;7.03;;;;;;;;;;5086273;28;20032;-48
2021/07/12 04:47:43;;;;;;;8.18;6.63;;;;;;;;;;5086412;28;20036;-48
2021/07/12 04:50:10;;;;;;;7.13;6.43;;;;;;;;;;5093433;28;20119;-49
2021/07/12 04:52:36;;;;;;;7.93;6.65;;;;;;;;;;5074546;28;20053;-51
2021/07/12 04:55:06;;;;;;;7.70;6.90;;;;;;;;;;5092905;28;20107;-49
2021/07/12 04:57:33;;;;;;;9.63;6.72;;;;;;;;;;5072548;28;20097;-50
2021/07/12 05:00:01;;;;;;;7.93;7.07;;;;;;;;;;5093275;28;20070;-49
2021/07/12 05:02:27;;;;;;;9.02;6.93;;;;;;;;;;5078939;28;20101;-51
2021/07/12 05:04:53;;;;;;;7.60;6.88;;;;;;;;;;5093299;28;20455;-48
2021/07/12 05:07:19;;;;;;;7.72;6.95;;;;;;;;;;5074841;28;20073;-49
2021/07/12 05:09:45;;;;;;;7.03;6.32;;;;;;;;;;5086175;28;20029;-50
2021/07/12 05:12:14;;;;;;;6.65;6.05;;;;;;;;;;5083886;28;20028;-49
2021/07/12 05:14:41;;;;;;;7.13;6.43;;;;;;;;;;5063196;28;20049;-48
2021/07/12 05:17:07;;;;;;;8.15;6.95;;;;;;;;;;5086087;28;20024;-48
2021/07/12 05:19:33;;;;;;;8.93;6.82;;;;;;;;;;5092341;28;20025;-48
2021/07/12 05:22:00;;;;;;;6.88;6.20;;;;;;;;;;5091577;28;20535;-49
2021/07/12 05:24:26;;;;;;;6.80;6.10;;;;;;;;;;5084613;28;20107;-48
2021/07/12 05:26:52;;;;;;;7.00;6.32;;;;;;;;;;5070278;28;20450;-48
2021/07/12 05:29:18;;;;;;;6.57;5.97;;;;;;;;;;5080074;28;20388;-48
2021/07/12 05:31:45;;;;;;;7.68;6.30;;;;;;;;;;5085812;28;20035;-48
2021/07/12 05:34:11;;;;;;;7.05;6.15;;;;;;;;;;5061104;28;20040;-48
2021/07/12 05:36:37;;;;;;;7.53;6.38;;;;;;;;;;5058873;28;20091;-48
2021/07/12 05:39:04;;;;;;;6.43;5.78;;;;;;;;;;5056070;28;20090;-50
2021/07/12 05:41:29;;;;;;;9.10;5.85;;;;;;;;;;5075103;28;20028;-48
2021/07/12 05:43:55;;;;;;;8.05;6.35;;;;;;;;;;5087339;28;20028;-48
2021/07/12 05:46:21;;;;;;;6.70;5.50;;;;;;;;;;5062294;28;20039;-50
2021/07/12 05:48:47;;;;;;;7.60;6.32;;;;;;;;;;5077022;28;20527;-47
2021/07/12 05:51:14;;;;;;;6.32;5.57;;;;;;;;;;5087523;28;20058;-48
2021/07/12 05:53:40;;;;;;;6.18;5.57;;;;;;;;;;5075547;28;20028;-48
2021/07/12 05:56:06;;;;;;;5.88;5.35;;;;;;;;;;5090874;28;20024;-48
2021/07/12 05:58:32;;;;;;;6.85;5.55;;;;;;;;;;5058379;28;20104;-48
2021/07/12 06:00:58;;;;;;;5.55;5.05;;;;;;;;;;5084296;28;20032;-47
2021/07/12 06:03:27;;;;;;;6.15;5.47;;;;;;;;;;5063578;28;20112;-48
2021/07/12 06:05:53;;;;;;;5.78;5.20;;;;;;;;;;5060656;28;20131;-50
2021/07/12 06:08:19;;;;;;;5.20;4.68;;;;;;;;;;5059621;28;20755;-49
2021/07/12 06:10:45;;;;;;;5.95;5.35;;;;;;;;;;5085949;28;20342;-48
2021/07/12 06:13:11;;;;;;;6.93;5.50;;;;;;;;;;5074990;28;20028;-50
2021/07/12 06:15:37;;;;;;;5.88;5.20;;;;;;;;;;5075309;28;20475;-49
2021/07/12 06:18:03;;;;;;;5.80;5.20;;;;;;;;;;5082579;28;20107;-48
2021/07/12 06:20:29;;;;;;;5.78;5.25;;;;;;;;;;5087345;28;20024;-53
2021/07/12 06:22:56;;;;;;;8.43;5.68;;;;;;;;;;5090782;28;20035;-48
2021/07/12 06:25:22;;;;;;;6.65;5.10;;;;;;;;;;5087381;28;20120;-48
2021/07/12 06:27:48;;;;;;;7.53;5.30;;;;;;;;;;5082937;28;20047;-48
2021/07/12 06:30:15;;;;;;;5.90;5.30;;;;;;;;;;5059353;28;20389;-48
2021/07/12 06:32:41;;;;;;;6.82;4.90;;;;;;;;;;5058185;28;20033;-48
2021/07/12 06:35:07;;;;;;;5.55;4.72;;;;;;;;;;5060337;28;20032;-48
2021/07/12 06:37:34;;;;;;;5.78;5.18;;;;;;;;;;5074576;28;20364;-48
2021/07/12 06:40:00;;;;;;;5.93;5.30;;;;;;;;;;5090361;28;20129;-48
2021/07/12 06:42:27;;;;;;;6.25;4.60;;;;;;;;;;5080123;28;20484;-50
2021/07/12 06:44:57;;;;;;;5.72;5.13;;;;;;;;;;5086543;28;20021;-49
2021/07/12 06:47:25;;;;;;;6.10;4.85;;;;;;;;;;5084944;28;20077;-51
2021/07/12 06:49:51;;;;;;;4.78;4.35;;;;;;;;;;5071886;28;20040;-48
2021/07/12 06:52:17;;;;;;;5.50;5.00;;;;;;;;;;5087133;28;20040;-48
2021/07/12 06:54:45;;;;;;;5.63;5.03;;;;;;;;;;5069660;28;20036;-52
2021/07/12 06:57:11;;;;;;;5.15;4.65;;;;;;;;;;5083755;28;20024;-48
2021/07/12 06:59:37;;;;;;;6.00;5.40;;;;;;;;;;5069011;28;20082;-48
2021/07/12 07:02:03;;;;;;;7.18;5.22;;;;;;;;;;5081335;28;20056;-48
2021/07/12 07:04:29;;;;;;;6.45;5.20;;;;;;;;;;5083207;28;20039;-47
2021/07/12 07:06:55;;;;;;;5.55;4.70;;;;;;;;;;5079888;28;20403;-48
2021/07/12 07:09:21;;;;;;;7.18;4.55;;;;;;;;;;5081569;28;20146;-47
2021/07/12 07:11:47;;;;;;;5.40;4.45;;;;;;;;;;5091504;28;20036;-47
2021/07/12 07:14:13;;;;;;;6.70;4.80;;;;;;;;;;5066724;28;20539;-48
2021/07/12 07:16:39;;;;;;;8.15;4.25;;;;;;;;;;5067125;28;20025;-48
2021/07/12 07:19:05;;;;;;;6.57;5.03;;;;;;;;;;5078887;28;20111;-49
2021/07/12 07:21:31;;;;;;;9.30;4.40;;;;;;;;;;5064187;28;20449;-47
2021/07/12 07:23:57;;;;;;;6.28;4.63;;;;;;;;;;5075989;28;20035;-48
2021/07/12 07:26:23;;;;;;;4.68;4.28;;;;;;;;;;5070327;28;20465;-48
2021/07/12 07:28:49;;;;;;;9.45;5.00;;;;;;;;;;5090869;28;20028;-48
2021/07/12 07:31:15;;;;;;;5.20;4.50;;;;;;;;;;5086699;28;20024;-49
2021/07/12 07:33:41;;;;;;;8.10;4.68;;;;;;;;;;5084303;28;20024;-48
2021/07/12 07:36:08;;;;;;;5.03;4.25;;;;;;;;;;5086985;28;20559;-48
2021/07/12 07:38:34;;;;;;;11.00;4.43;;;;;;;;;;5077081;28;20024;-47
2021/07/12 07:41:00;;;;;;;5.40;4.70;;;;;;;;;;5081766;28;20032;-51
2021/07/12 07:43:26;;;;;;;5.50;4.53;;;;;;;;;;5078023;28;20039;-48
2021/07/12 07:45:52;;;;;;;6.57;5.18;;;;;;;;;;5071749;28;20028;-47
2021/07/12 07:48:18;;;;;;;6.15;4.55;;;;;;;;;;5071611;28;20090;-48
2021/07/12 07:50:44;;;;;;;6.03;4.75;;;;;;;;;;5069465;28;20021;-48
2021/07/12 07:53:10;;;;;;;5.10;4.57;;;;;;;;;;5084873;28;20032;-48
2021/07/12 07:55:37;;;;;;;4.97;4.47;;;;;;;;;;5067224;28;20033;-50
2021/07/12 07:58:03;;;;;;;6.15;4.05;;;;;;;;;;5083358;28;20039;-50
2021/07/12 08:00:29;;;;;;;5.82;4.65;;;;;;;;;;5066064;28;20369;-48
2021/07/12 08:02:55;;;;;;;4.97;4.47;;;;;;;;;;5065651;28;20529;-48
2021/07/12 08:05:21;;;;;;;4.40;4.00;;;;;;;;;;5080306;28;20144;-49
2021/07/12 08:07:47;;;;;;;4.80;4.32;;;;;;;;;;5059767;28;20120;-49
2021/07/12 08:10:15;;;;;;;5.07;4.45;;;;;;;;;;5059891;28;20045;-50
2021/07/12 08:12:42;;;;;;;4.78;4.28;;;;;;;;;;5063050;28;20025;-49
2021/07/12 08:15:09;;;;;;;5.28;4.25;;;;;;;;;;5075303;28;20028;-48
2021/07/12 08:17:35;;;;;;;4.68;4.15;;;;;;;;;;5079035;28;20043;-48
2021/07/12 08:20:01;;;;;;;5.53;3.78;;;;;;;;;;5067735;28;20024;-50
2021/07/12 08:22:27;;;;;;;5.00;3.90;;;;;;;;;;5060773;28;20032;-50
2021/07/12 08:24:53;;;;;;;8.77;4.63;;;;;;;;;;5070434;28;20100;-50
2021/07/12 08:27:19;;;;;;;10.73;4.50;;;;;;;;;;5067518;28;20031;-50
2021/07/12 08:29:45;;;;;;;6.07;4.68;;;;;;;;;;5067968;28;20048;-49
2021/07/12 08:32:11;;;;;;;7.93;4.55;;;;;;;;;;5072759;28;20060;-49
2021/07/12 08:34:43;;;;;;;6.00;4.63;;;;;;;;;;5066034;28;20067;-53
2021/07/12 08:37:09;;;;;;;5.15;4.55;;;;;;;;;;5066549;28;20055;-49
2021/07/12 08:39:35;;;;;;;5.68;5.03;;;;;;;;;;5086118;28;20086;-52
2021/07/12 08:42:01;;;;;;;6.22;4.63;;;;;;;;;;5080894;28;20041;-49
2021/07/12 08:44:28;;;;;;;5.10;4.15;;;;;;;;;;5057912;28;20037;-49
2021/07/12 08:46:54;;;;;;;6.60;4.55;;;;;;;;;;5068164;28;20036;-50
2021/07/12 08:49:20;;;;;;;4.85;4.32;;;;;;;;;;5062565;28;20032;-51
2021/07/12 08:51:46;;;;;;;4.88;4.47;;;;;;;;;;5066036;28;20016;-51
2021/07/12 08:54:12;;;;;;;6.45;4.10;;;;;;;;;;5064147;28;20139;-52
2021/07/12 08:56:38;;;;;;;4.75;4.25;;;;;;;;;;5054828;28;20032;-50
2021/07/12 08:59:23;;;;;;;4.47;4.07;;;;;;;;;;5074558;28;20392;-49
2021/07/12 09:02:08;;;;;;;6.65;4.55;;;;;;;;;;5063676;28;20096;-50
2021/07/12 09:04:34;;;;;;;5.65;3.92;;;;;;;;;;5072657;28;20093;-49
2021/07/12 09:07:04;;;;;;;5.00;4.50;;;;;;;;;;5071691;28;20409;-49
2021/07/12 09:09:30;;;;;;;7.20;4.78;;;;;;;;;;5066593;28;20104;-53
2021/07/12 09:11:56;;;;;;;4.80;4.30;;;;;;;;;;5073799;28;20099;-50
2021/07/12 09:14:24;;;;;;;4.22;3.83;;;;;;;;;;5083075;28;20122;-50
2021/07/12 09:16:51;;;;;;;4.85;4.35;;;;;;;;;;5084876;28;20449;-50
2021/07/12 09:19:29;;;;;;;4.75;4.25;;;;;;;;;;5081061;28;20058;-50
2021/07/12 09:21:59;;;;;;;9.57;4.00;;;;;;;;;;5074004;28;20691;-50
2021/07/12 09:24:38;;;;;;;6.30;4.40;;;;;;;;;;5062975;28;20063;-50
2021/07/12 09:27:15;;;;;;;7.50;4.40;;;;;;;;;;5082864;28;20036;-49
2021/07/12 09:29:42;;;;;;;5.75;5.00;;;;;;;;;;5092102;28;20047;-49
2021/07/12 09:32:14;;;;;;;5.28;4.78;;;;;;;;;;5091619;28;20051;-50
2021/07/12 09:34:41;;;;;;;6.20;4.80;;;;;;;;;;5068495;28;20025;-49
2021/07/12 09:37:08;;;;;;;5.13;4.60;;;;;;;;;;5083943;28;20525;-48
2021/07/12 09:39:38;;;;;;;7.57;4.80;;;;;;;;;;5087322;28;20483;-49
2021/07/12 09:42:12;;;;;;;5.97;5.00;;;;;;;;;;5073024;28;20024;-48
2021/07/12 09:44:43;;;;;;;5.00;4.32;;;;;;;;;;5054737;28;20025;-48
2021/07/12 09:47:11;;;;;;;5.28;4.07;;;;;;;;;;5063371;28;20025;-48
2021/07/12 09:49:37;;;;;;;4.43;4.03;;;;;;;;;;5075472;28;20056;-50
2021/07/12 09:52:05;;;;;;;4.55;4.03;;;;;;;;;;5057365;28;20472;-48
2021/07/12 09:54:36;;;;;;;4.00;3.60;;;;;;;;;;5074160;28;20476;-48
2021/07/12 09:57:07;;;;;;;4.32;3.78;;;;;;;;;;5092325;28;20028;-48
2021/07/12 09:59:34;;;;;;;5.68;4.32;;;;;;;;;;5071049;28;20530;-48
2021/07/12 10:02:00;;;;;;;3.70;3.20;;;;;;;;;;5075325;28;20686;-51
2021/07/12 10:04:26;;;;;;;6.88;4.03;;;;;;;;;;5066366;28;20032;-48
2021/07/12 10:06:52;;;;;;;4.43;4.03;;;;;;;;;;5075449;28;20037;-48
2021/07/12 10:09:21;;;;;;;4.55;3.60;;;;;;;;;;5090113;28;20044;-48
2021/07/12 10:11:48;;;;;;;4.40;4.00;;;;;;;;;;5086457;28;20020;-50
2021/07/12 10:14:14;;;;;;;5.85;3.83;;;;;;;;;;5077770;28;20043;-49
2021/07/12 10:16:40;;;;;;;3.60;3.30;;;;;;;;;;5092264;28;20027;-48
2021/07/12 10:19:06;;;;;;;4.25;3.63;;;;;;;;;;5082587;28;20028;-48
2021/07/12 10:21:40;;;;;;;4.43;3.95;;;;;;;;;;5080970;28;20089;-48
2021/07/12 10:24:06;;;;;;;7.03;4.20;;;;;;;;;;5066492;28;20039;-48
2021/07/12 10:26:50;;;;;;;7.80;4.30;;;;;;;;;;5096031;28;20028;-47
2021/07/12 10:29:16;;;;;;;;;;;;;;;;;;5083891;28;20029;-51
2021/07/12 10:32:14;;;;;;;5.85;3.90;;;;;;;;;;5065402;28;19961;-50
2021/07/12 10:34:41;;;;;;;6.05;4.60;;;;;;;;;;5055939;28;20029;-49
2021/07/12 10:37:24;;;;;;;5.13;4.65;;;;;;;;;;5073746;28;20024;-51
2021/07/12 10:40:07;;;;;;;5.32;4.18;;;;;;;;;;5069746;28;20032;-49
2021/07/12 10:43:00;;;;;;;6.75;4.55;;;;;;;;;;5071519;28;20028;-48
2021/07/12 10:45:28;;;;;;;5.18;4.63;;;;;;;;;;5092056;28;20059;-49
2021/07/12 10:47:57;;;;;;;6.18;4.32;;;;;;;;;;5079243;28;20024;-49
2021/07/12 10:50:38;;;;;;;5.22;4.72;;;;;;;;;;5072314;28;20032;-48
2021/07/12 10:53:30;;;;;;;4.75;4.32;;;;;;;;;;5079709;28;20812;-48
2021/07/12 10:56:05;;;;;;;5.28;4.28;;;;;;;;;;5083464;28;20030;-48
2021/07/12 10:58:31;;;;;;;4.80;4.18;;;;;;;;;;5072596;28;20413;-48
2021/07/12 11:00:59;;;;;;;4.93;4.47;;;;;;;;;;5078004;28;20021;-49
2021/07/12 11:03:38;;;;;;;5.15;4.25;;;;;;;;;;5068002;28;20036;-49
2021/07/12 11:06:04;;;;;;;6.30;4.65;;;;;;;;;;5075407;28;20039;-50
2021/07/12 11:08:47;;;;;;;4.40;3.92;;;;;;;;;;5089520;28;20040;-51
2021/07/12 11:11:33;;;;;;;5.20;4.60;;;;;;;;;;5082646;28;20024;-50
2021/07/12 11:14:05;;;;;;;5.85;5.25;;;;;;;;;;5077426;28;20028;-49
2021/07/12 11:16:41;;;;;;;5.93;5.32;;;;;;;;;;5072902;28;20461;-51
2021/07/12 11:19:21;;;;;;;7.25;5.60;;;;;;;;;;5057572;28;20048;-50
2021/07/12 11:21:48;;;;;;;6.30;5.18;;;;;;;;;;5078512;28;20028;-49
2021/07/12 11:24:22;;;;;;;5.57;4.82;;;;;;;;;;5078384;28;20054;-54
2021/07/12 11:26:49;;;;;;;5.75;5.10;;;;;;;;;;5067588;28;20029;-51
2021/07/12 11:29:41;;;;;;;6.30;4.72;;;;;;;;;;5061462;28;20081;-48
2021/07/12 11:32:09;;;;;;;5.93;5.03;;;;;;;;;;5055982;28;20068;-48
2021/07/12 11:34:51;;;;;;;7.88;5.20;;;;;;;;;;5064358;28;20116;-52
2021/07/12 11:37:21;;;;;;;7.77;5.53;;;;;;;;;;5070161;28;20058;-49
2021/07/12 11:39:51;;;;;;;5.68;5.10;;;;;;;;;;5092579;28;20383;-55
2021/07/12 11:42:16;;;;;;;5.78;5.18;;;;;;;;;;5076376;28;20036;-54
2021/07/12 11:45:13;;;;;;;8.30;5.38;;;;;;;;;;5059517;28;20033;-53
2021/07/12 11:47:44;;;;;;;5.75;4.80;;;;;;;;;;5050049;28;20041;-57
2021/07/12 11:50:10;;;;;;;6.22;5.22;;;;;;;;;;5058575;28;20090;-54
2021/07/12 11:52:41;;;;;;;5.85;5.30;;;;;;;;;;5061679;28;20502;-55
2021/07/12 11:55:08;;;;;;;6.18;5.57;;;;;;;;;;5067037;28;20053;-52
2021/07/12 11:57:37;;;;;;;7.55;5.68;;;;;;;;;;5081242;28;20478;-54
2021/07/12 12:00:05;;;;;;;5.57;4.85;;;;;;;;;;5061260;28;20047;-53
2021/07/12 12:02:31;;;;;;;7.55;5.18;;;;;;;;;;5073660;28;20116;-54
2021/07/12 12:04:58;;;;;;;6.43;5.03;;;;;;;;;;5077741;28;20456;-54
2021/07/12 12:07:33;;;;;;;6.97;4.72;;;;;;;;;;5076592;28;20033;-54
2021/07/12 12:10:01;;;;;;;5.53;4.95;;;;;;;;;;5079659;28;20024;-57
2021/07/12 12:12:27;;;;;;;7.18;4.47;;;;;;;;;;5081546;28;20460;-53
2021/07/12 12:14:57;;;;;;;5.55;5.03;;;;;;;;;;5080455;28;20021;-55
2021/07/12 12:17:23;;;;;;;5.20;4.70;;;;;;;;;;5081196;28;20021;-55
2021/07/12 12:20:08;;;;;;;5.00;4.47;;;;;;;;;;5080642;28;20030;-57
2021/07/12 12:22:34;;;;;;;4.82;4.32;;;;;;;;;;5077549;28;20039;-54
2021/07/12 12:25:01;;;;;;;5.88;4.60;;;;;;;;;;5079106;28;20089;-55
2021/07/12 12:27:27;;;;;;;5.03;4.53;;;;;;;;;;5084772;28;20048;-54
2021/07/12 12:29:53;;;;;;;5.50;5.00;;;;;;;;;;5071521;28;20071;-55
2021/07/12 12:32:32;;;;;;;8.93;6.38;;;;;;;;;;5062621;28;20061;-56
2021/07/12 12:35:00;;;;;;;7.03;4.80;;;;;;;;;;5064097;28;20021;-54
2021/07/12 12:37:33;;;;;;;6.05;4.35;;;;;;;;;;5057070;28;20025;-57
2021/07/12 12:40:17;;;;;;;5.43;4.78;;;;;;;;;;5078179;28;20062;-57
2021/07/12 12:42:44;;;;;;;5.40;4.90;;;;;;;;;;5067521;28;20029;-51
2021/07/12 12:45:10;;;;;;;7.68;5.13;;;;;;;;;;5069076;28;20477;-54
2021/07/12 12:47:37;;;;;;;5.93;5.35;;;;;;;;;;5059965;28;20020;-53
2021/07/12 12:50:16;;;;;;;5.22;4.60;;;;;;;;;;5060697;28;20044;-54
2021/07/12 12:52:42;;;;;;;5.47;4.97;;;;;;;;;;5082399;28;20016;-54
2021/07/12 12:55:11;;;;;;;6.30;5.10;;;;;;;;;;5088372;28;20109;-51
2021/07/12 12:57:47;;;;;;;4.75;4.30;;;;;;;;;;5060070;28;20040;-54
2021/07/12 13:00:15;;;;;;;4.30;3.95;;;;;;;;;;5064772;28;20040;-55
2021/07/12 13:02:42;;;;;;;4.60;3.78;;;;;;;;;;5072412;28;20377;-54
2021/07/12 13:05:10;;;;;;;4.78;4.28;;;;;;;;;;5078965;28;20035;-55
2021/07/12 13:07:50;;;;;;;3.92;3.50;;;;;;;;;;5076054;28;20073;-53
2021/07/12 13:10:18;;;;;;;4.05;3.60;;;;;;;;;;5075207;28;20044;-54
2021/07/12 13:12:47;;;;;;;4.35;3.47;;;;;;;;;;5074794;28;20051;-54
2021/07/12 13:15:14;;;;;;;5.55;3.10;;;;;;;;;;5077675;28;20036;-56
2021/07/12 13:17:40;;;;;;;3.50;3.20;;;;;;;;;;5073571;28;20029;-54
2021/07/12 13:20:12;;;;;;;3.25;2.92;;;;;;;;;;5075636;28;20032;-52
2021/07/12 13:22:39;;;;;;;3.13;2.80;;;;;;;;;;5073167;28;20545;-54
2021/07/12 13:25:08;;;;;;;2.50;2.30;;;;;;;;;;5064191;28;20107;-55
2021/07/12 13:27:35;;;;;;;7.72;3.38;;;;;;;;;;5070081;28;21664;-55
2021/07/12 13:30:04;;;;;;;3.28;2.97;;;;;;;;;;5071128;28;20464;-52
2021/07/12 13:32:30;;;;;;;3.65;2.97;;;;;;;;;;5064338;28;20024;-53
2021/07/12 13:35:01;;;;;;;10.68;2.67;;;;;;;;;;5057630;28;20051;-54
2021/07/12 13:37:27;;;;;;;2.78;2.50;;;;;;;;;;5076047;28;20020;-53
2021/07/12 13:39:54;;;;;;;2.60;2.38;;;;;;;;;;5078143;28;20115;-52
2021/07/12 13:42:20;;;;;;;3.28;2.30;;;;;;;;;;5075031;28;20058;-55
2021/07/12 13:44:47;;;;;;;3.28;2.22;;;;;;;;;;5058034;28;20033;-53
2021/07/12 13:47:13;;;;;;;3.00;2.17;;;;;;;;;;5060820;28;20056;-54
2021/07/12 13:49:39;;;;;;;2.30;2.05;;;;;;;;;;5055576;28;20025;-54
2021/07/12 13:52:06;;;;;;;2.53;2.25;;;;;;;;;;5066936;28;20158;-55
2021/07/12 13:54:32;;;;;;;3.25;2.15;;;;;;;;;;5059748;28;20029;-53
2021/07/12 13:56:58;;;;;;;3.97;2.60;;;;;;;;;;5075758;28;20021;-55
2021/07/12 13:59:24;;;;;;;2.83;2.63;;;;;;;;;;5063799;28;20528;-57
2021/07/12 14:01:50;;;;;;;6.90;3.30;;;;;;;;;;5064601;28;20043;-53
2021/07/12 14:04:16;;;;;;;3.95;3.08;;;;;;;;;;5056091;28;20464;-57
2021/07/12 14:06:42;;;;;;;4.03;3.30;;;;;;;;;;5053799;28;20041;-56
2021/07/12 14:09:08;;;;;;;3.30;3.00;;;;;;;;;;5077521;28;20033;-55
2021/07/12 14:11:35;;;;;;;6.50;3.40;;;;;;;;;;5071908;28;20048;-57
2021/07/12 14:14:01;;;;;;;6.28;3.45;;;;;;;;;;5065851;28;20434;-55
2021/07/12 14:16:27;;;;;;;5.28;3.65;;;;;;;;;;5065292;28;20060;-56
2021/07/12 14:18:53;;;;;;;4.93;3.70;;;;;;;;;;5070236;28;20035;-55
2021/07/12 14:21:20;;;;;;;7.32;4.38;;;;;;;;;;5062213;28;20511;-55
2021/07/12 14:23:46;;;;;;;5.15;3.72;;;;;;;;;;5063324;28;20459;-55
2021/07/12 14:26:19;;;;;;;4.72;4.18;;;;;;;;;;5067121;28;20509;-54
2021/07/12 14:28:50;;;;;;;5.70;3.85;;;;;;;;;;5059321;28;20047;-55
2021/07/12 14:31:16;;;;;;;6.78;4.40;;;;;;;;;;5059075;28;20121;-58
2021/07/12 14:33:46;;;;;;;5.13;4.63;;;;;;;;;;5070647;28;20032;-56
2021/07/12 14:36:12;;;;;;;5.47;4.35;;;;;;;;;;5077744;28;20449;-53
2021/07/12 14:38:38;;;;;;;6.43;4.60;;;;;;;;;;5057489;28;20082;-54
2021/07/12 14:41:05;;;;;;;5.30;4.80;;;;;;;;;;5084013;28;20068;-56
2021/07/12 14:43:32;;;;;;;7.10;5.05;;;;;;;;;;5074711;28;20482;-57
2021/07/12 14:45:58;;;;;;;6.50;5.07;;;;;;;;;;5068564;28;20030;-52
2021/07/12 14:48:23;;;;;;;5.97;5.40;;;;;;;;;;5072134;28;20044;-56
2021/07/12 14:50:50;;;;;;;6.05;5.45;;;;;;;;;;5063161;28;20111;-55